KMHL/MHL METAR and TAF weather

Enter ICAO airport designator
Station Type Date Time Source
KMHL METAR 2022/06/30 01:15 UTC NOAA

KMHL 300115Z AUTO 00000KT 10SM CLR 26/18 A3011 RMK AO2


Station Type Date Time Source
KMHL Decoded METAR 2022/06/30 01:15 UTC NOAA

Station name not available
Jun 29, 2022 - 09:15 PM EDT / 2022.06.30 0115 UTC
Wind: Calm:0
Visibility: 10 mile(s):0
Sky conditions: clear
Temperature: 78 F (26 C)
Dew Point: 64 F (18 C)
Relative Humidity: 61%
Pressure (altimeter): 30.11 in. Hg (1019 hPa)
ob: KMHL 300115Z AUTO 00000KT 10SM CLR 26/18 A3011 RMK AO2
cycle: 1

Station Type Date Time Source
KMHL TAF UTC NOAA

Error!

Example: see airport list